createdAt,value
2023-04-25T00:00:10.000Z,280.51
2023-04-25T00:01:37.000Z,280.51
2023-04-25T00:03:43.000Z,280.5
2023-04-25T00:05:10.000Z,280.51
2023-04-25T00:07:16.000Z,280.49
2023-04-25T00:08:42.000Z,280.47
2023-04-25T00:10:48.000Z,280.49
2023-04-25T00:12:15.000Z,280.47
2023-04-25T00:14:21.000Z,280.47
2023-04-25T00:15:48.000Z,280.47
2023-04-25T00:17:54.000Z,280.47
2023-04-25T00:19:20.000Z,280.47
2023-04-25T00:21:26.000Z,280.47
2023-04-25T00:22:53.000Z,280.47
2023-04-25T00:24:59.000Z,280.47
2023-04-25T00:26:26.000Z,280.49
2023-04-25T00:28:32.000Z,280.49
2023-04-25T00:29:58.000Z,280.47
2023-04-25T00:32:05.000Z,280.49
2023-04-25T00:34:56.000Z,280.49
2023-04-25T00:36:22.000Z,280.47
2023-04-25T00:38:28.000Z,280.47
2023-04-25T00:39:55.000Z,280.46
2023-04-25T00:42:01.000Z,280.46
2023-04-25T00:43:28.000Z,280.45
2023-04-25T00:45:34.000Z,280.42
2023-04-25T00:47:00.000Z,280.38
2023-04-25T00:49:07.000Z,280.38
2023-04-25T00:50:33.000Z,280.38
2023-04-25T00:52:39.000Z,280.37
2023-04-25T00:54:06.000Z,280.35
2023-04-25T00:56:12.000Z,280.34
2023-04-25T00:57:38.000Z,280.3
2023-04-25T00:59:44.000Z,280.31
2023-04-25T01:01:11.000Z,280.28
2023-04-25T01:03:17.000Z,280.27
2023-04-25T01:04:44.000Z,280.27
2023-04-25T01:06:50.000Z,280.25
2023-04-25T01:08:16.000Z,280.24
2023-04-25T01:10:23.000Z,280.25
2023-04-25T01:13:14.000Z,280.21
2023-04-25T01:14:40.000Z,280.21
2023-04-25T01:16:46.000Z,280.21
2023-04-25T01:18:13.000Z,280.2
2023-04-25T01:20:19.000Z,280.2
2023-04-25T01:21:46.000Z,280.2
2023-04-25T01:23:52.000Z,280.2
2023-04-25T01:25:19.000Z,280.2
2023-04-25T01:27:25.000Z,280.18
2023-04-25T01:28:51.000Z,280.17
2023-04-25T01:30:58.000Z,280.16
2023-04-25T01:32:24.000Z,280.16
2023-04-25T01:34:30.000Z,280.13
2023-04-25T01:35:57.000Z,280.16
2023-04-25T01:38:03.000Z,280.14
2023-04-25T01:39:30.000Z,280.13
2023-04-25T01:41:36.000Z,280.12
2023-04-25T01:43:02.000Z,280.1
2023-04-25T01:45:08.000Z,280.1
2023-04-25T01:46:35.000Z,280.09
2023-04-25T01:48:41.000Z,280.07
2023-04-25T01:51:32.000Z,280.05
2023-04-25T01:52:59.000Z,280.02
2023-04-25T01:55:05.000Z,280.02
2023-04-25T01:56:31.000Z,279.99
2023-04-25T01:58:37.000Z,279.99
2023-04-25T02:00:04.000Z,279.99
2023-04-25T02:02:10.000Z,279.96
2023-04-25T02:03:36.000Z,279.96
2023-04-25T02:05:43.000Z,279.93
2023-04-25T02:07:09.000Z,279.91
2023-04-25T02:09:16.000Z,279.88
2023-04-25T02:10:42.000Z,279.86
2023-04-25T02:12:48.000Z,279.85
2023-04-25T02:14:15.000Z,279.82
2023-04-25T02:16:21.000Z,279.81
2023-04-25T02:17:48.000Z,279.76
2023-04-25T02:19:54.000Z,279.73
2023-04-25T02:21:20.000Z,279.69
2023-04-25T02:23:26.000Z,279.65
2023-04-25T02:24:53.000Z,279.59
2023-04-25T02:26:59.000Z,279.55
2023-04-25T02:29:50.000Z,279.49
2023-04-25T02:31:16.000Z,279.45
2023-04-25T02:33:23.000Z,279.41
2023-04-25T02:34:49.000Z,279.34
2023-04-25T02:36:55.000Z,279.28
2023-04-25T02:38:22.000Z,279.23
2023-04-25T02:40:28.000Z,279.2
2023-04-25T02:41:54.000Z,279.19
2023-04-25T02:44:00.000Z,279.16
2023-04-25T02:45:27.000Z,279.13
2023-04-25T02:47:33.000Z,279.08
2023-04-25T02:49:00.000Z,279.05
2023-04-25T02:51:06.000Z,279.03
2023-04-25T02:52:32.000Z,279.01
2023-04-25T02:54:38.000Z,278.99
2023-04-25T02:56:05.000Z,278.94
2023-04-25T02:58:11.000Z,278.93
2023-04-25T02:59:38.000Z,278.92
2023-04-25T03:01:44.000Z,278.88
2023-04-25T03:03:10.000Z,278.83
2023-04-25T03:05:16.000Z,278.82
2023-04-25T03:08:08.000Z,278.76
2023-04-25T03:09:34.000Z,278.71
2023-04-25T03:11:40.000Z,278.65
2023-04-25T03:13:07.000Z,278.61
2023-04-25T03:15:13.000Z,278.57
2023-04-25T03:16:39.000Z,278.53
2023-04-25T03:18:46.000Z,278.5
2023-04-25T03:20:12.000Z,278.44
2023-04-25T03:22:18.000Z,278.39
2023-04-25T03:23:45.000Z,278.36
2023-04-25T03:25:51.000Z,278.29
2023-04-25T03:27:17.000Z,278.26
2023-04-25T03:29:24.000Z,278.22
2023-04-25T03:30:50.000Z,278.17
2023-04-25T03:32:56.000Z,278.13
2023-04-25T03:34:23.000Z,278.06
2023-04-25T03:36:29.000Z,278.02
2023-04-25T03:37:55.000Z,277.97
2023-04-25T03:40:02.000Z,277.92
2023-04-25T03:41:28.000Z,277.86
2023-04-25T03:43:34.000Z,277.84
2023-04-25T03:46:25.000Z,277.75
2023-04-25T03:47:52.000Z,277.72
2023-04-25T03:49:58.000Z,277.72
2023-04-25T03:51:25.000Z,277.7
2023-04-25T03:53:31.000Z,277.7
2023-04-25T03:54:57.000Z,277.68
2023-04-25T03:57:03.000Z,277.65
2023-04-25T03:58:30.000Z,277.63
2023-04-25T04:00:36.000Z,277.6
2023-04-25T04:02:02.000Z,277.56
2023-04-25T04:04:09.000Z,277.53
2023-04-25T04:05:36.000Z,277.55
2023-04-25T04:07:42.000Z,277.53
2023-04-25T04:09:08.000Z,277.53
2023-04-25T04:11:14.000Z,277.51
2023-04-25T04:12:41.000Z,277.48
2023-04-25T04:14:47.000Z,277.48
2023-04-25T04:16:14.000Z,277.45
2023-04-25T04:18:20.000Z,277.43
2023-04-25T04:19:46.000Z,277.45
2023-04-25T04:21:52.000Z,277.4
2023-04-25T04:24:43.000Z,277.38
2023-04-25T04:26:10.000Z,277.38
2023-04-25T04:28:16.000Z,277.38
2023-04-25T04:29:43.000Z,277.38
2023-04-25T04:31:49.000Z,277.37
2023-04-25T04:33:16.000Z,277.4
2023-04-25T04:35:22.000Z,277.41
2023-04-25T04:36:48.000Z,277.43
2023-04-25T04:38:54.000Z,277.43
2023-04-25T04:40:21.000Z,277.43
2023-04-25T04:42:27.000Z,277.45
2023-04-25T04:43:54.000Z,277.46
2023-04-25T04:46:00.000Z,277.48
2023-04-25T04:47:26.000Z,277.46
2023-04-25T04:49:32.000Z,277.46
2023-04-25T04:50:59.000Z,277.48
2023-04-25T04:53:05.000Z,277.48
2023-04-25T04:54:32.000Z,277.49
2023-04-25T04:56:38.000Z,277.49
2023-04-25T04:58:04.000Z,277.52
2023-04-25T05:00:10.000Z,277.55
2023-04-25T05:03:02.000Z,277.59
2023-04-25T05:04:28.000Z,277.61
2023-04-25T05:06:35.000Z,277.63
2023-04-25T05:08:01.000Z,277.67
2023-04-25T05:10:07.000Z,277.71
2023-04-25T05:11:34.000Z,277.71
2023-04-25T05:13:40.000Z,277.7
2023-04-25T05:15:07.000Z,277.77
2023-04-25T05:17:13.000Z,277.85
2023-04-25T05:18:39.000Z,277.92
2023-04-25T05:20:45.000Z,277.93
2023-04-25T05:22:12.000Z,277.96
2023-04-25T05:24:18.000Z,277.96
2023-04-25T05:25:44.000Z,277.97
2023-04-25T05:27:50.000Z,277.99
2023-04-25T05:29:17.000Z,278
2023-04-25T05:31:23.000Z,278.03
2023-04-25T05:32:50.000Z,278.07
2023-04-25T05:34:56.000Z,278.13
2023-04-25T05:36:23.000Z,278.18
2023-04-25T05:38:29.000Z,278.25
2023-04-25T05:41:20.000Z,278.32
2023-04-25T05:42:46.000Z,278.37
2023-04-25T05:44:52.000Z,278.43
2023-04-25T05:46:19.000Z,278.5
2023-04-25T05:48:25.000Z,278.58
2023-04-25T05:49:52.000Z,278.74
2023-04-25T05:51:58.000Z,278.88
2023-04-25T05:53:24.000Z,278.94
2023-04-25T05:55:30.000Z,279.06
2023-04-25T05:56:57.000Z,279.12
2023-04-25T05:59:03.000Z,279.16
2023-04-25T06:00:29.000Z,279.2
2023-04-25T06:02:36.000Z,279.27
2023-04-25T06:04:02.000Z,279.31
2023-04-25T06:06:09.000Z,279.34
2023-04-25T06:07:36.000Z,279.42
2023-04-25T06:09:42.000Z,279.38
2023-04-25T06:11:08.000Z,279.35
2023-04-25T06:13:14.000Z,279.35
2023-04-25T06:14:41.000Z,279.42
2023-04-25T06:16:47.000Z,279.54
2023-04-25T06:19:38.000Z,279.67
2023-04-25T06:21:05.000Z,279.69
2023-04-25T06:23:11.000Z,279.66
2023-04-25T06:24:38.000Z,279.8
2023-04-25T06:26:44.000Z,279.8
2023-04-25T06:28:10.000Z,279.8
2023-04-25T06:30:16.000Z,279.77
2023-04-25T06:31:43.000Z,279.72
2023-04-25T06:33:49.000Z,279.72
2023-04-25T06:35:16.000Z,279.6
2023-04-25T06:37:22.000Z,279.67
2023-04-25T06:38:49.000Z,279.66
2023-04-25T06:40:55.000Z,279.81
2023-04-25T06:42:22.000Z,279.99
2023-04-25T06:44:28.000Z,280.07
2023-04-25T06:45:54.000Z,280.09
2023-04-25T06:48:00.000Z,280.03
2023-04-25T06:49:27.000Z,279.99
2023-04-25T06:51:33.000Z,279.95
2023-04-25T06:53:00.000Z,280.02
2023-04-25T06:55:06.000Z,280.12
2023-04-25T06:57:57.000Z,280.23
2023-04-25T06:59:24.000Z,280.25
2023-04-25T07:01:30.000Z,280.32
2023-04-25T07:02:56.000Z,280.37
2023-04-25T07:05:03.000Z,280.35
2023-04-25T07:06:29.000Z,280.27
2023-04-25T07:08:35.000Z,280.21
2023-04-25T07:10:02.000Z,280.14
2023-04-25T07:12:08.000Z,280.2
2023-04-25T07:13:34.000Z,280.34
2023-04-25T07:15:41.000Z,280.51
2023-04-25T07:17:07.000Z,280.68
2023-04-25T07:19:14.000Z,280.8
2023-04-25T07:20:40.000Z,281.01
2023-04-25T07:22:46.000Z,281.12
2023-04-25T07:24:13.000Z,281.03
2023-04-25T07:26:19.000Z,281.04
2023-04-25T07:27:46.000Z,280.97
2023-04-25T07:29:52.000Z,280.89
2023-04-25T07:31:18.000Z,280.84
2023-04-25T07:33:25.000Z,280.86
2023-04-25T07:36:16.000Z,280.86
2023-04-25T07:37:42.000Z,280.93
2023-04-25T07:39:48.000Z,280.91
2023-04-25T07:41:15.000Z,280.91
2023-04-25T07:43:21.000Z,280.9
2023-04-25T07:44:48.000Z,280.9
2023-04-25T07:46:54.000Z,280.82
2023-04-25T07:48:20.000Z,280.78
2023-04-25T07:50:26.000Z,280.76
2023-04-25T07:51:53.000Z,280.83
2023-04-25T07:53:59.000Z,280.87
2023-04-25T07:55:25.000Z,280.86
2023-04-25T07:57:31.000Z,280.9
2023-04-25T07:58:58.000Z,281.01
2023-04-25T08:01:04.000Z,281.11
2023-04-25T08:02:30.000Z,281.25
2023-04-25T08:04:37.000Z,281.43
2023-04-25T08:06:04.000Z,281.56
2023-04-25T08:08:14.000Z,281.61
2023-04-25T08:09:40.000Z,281.76
2023-04-25T08:11:46.000Z,281.65
2023-04-25T08:14:37.000Z,281.69
2023-04-25T08:16:04.000Z,281.79
2023-04-25T08:18:10.000Z,281.91
2023-04-25T08:19:37.000Z,281.99
2023-04-25T08:21:43.000Z,281.98
2023-04-25T08:23:10.000Z,282.1
2023-04-25T08:25:16.000Z,282.19
2023-04-25T08:26:42.000Z,282.02
2023-04-25T08:28:48.000Z,281.85
2023-04-25T08:30:15.000Z,281.7
2023-04-25T08:32:21.000Z,281.56
2023-04-25T08:33:48.000Z,281.49
2023-04-25T08:35:54.000Z,281.54
2023-04-25T08:37:20.000Z,281.76
2023-04-25T08:39:27.000Z,281.94
2023-04-25T08:40:53.000Z,282.24
2023-04-25T08:42:59.000Z,282.24
2023-04-25T08:44:26.000Z,282.21
2023-04-25T08:46:32.000Z,282.06
2023-04-25T08:47:58.000Z,282.01
2023-04-25T08:50:05.000Z,282.03
2023-04-25T08:52:56.000Z,282.12
2023-04-25T08:54:22.000Z,282.34
2023-04-25T08:56:41.000Z,282.35
2023-04-25T08:58:08.000Z,282.35
2023-04-25T09:00:14.000Z,282.34
2023-04-25T09:01:40.000Z,282.39
2023-04-25T09:03:47.000Z,282.39
2023-04-25T09:05:13.000Z,282.34
2023-04-25T09:07:20.000Z,282.39
2023-04-25T09:08:46.000Z,282.41
2023-04-25T09:10:52.000Z,282.5
2023-04-25T09:12:19.000Z,282.63
2023-04-25T09:14:25.000Z,282.74
2023-04-25T09:15:52.000Z,282.85
2023-04-25T09:17:58.000Z,282.81
2023-04-25T09:19:25.000Z,282.89
2023-04-25T09:21:45.000Z,282.79
2023-04-25T09:23:12.000Z,282.82
2023-04-25T09:25:19.000Z,282.77
2023-04-25T09:26:45.000Z,282.67
2023-04-25T09:28:51.000Z,282.57
2023-04-25T09:31:42.000Z,282.46
2023-04-25T09:33:09.000Z,282.41
2023-04-25T09:35:15.000Z,282.39
2023-04-25T09:36:42.000Z,282.31
2023-04-25T09:38:48.000Z,282.27
2023-04-25T09:40:14.000Z,282.16
2023-04-25T09:42:20.000Z,282.19
2023-04-25T09:43:47.000Z,282.17
2023-04-25T09:45:53.000Z,282.16
2023-04-25T09:47:20.000Z,282.19
2023-04-25T09:49:26.000Z,282.16
2023-04-25T09:50:52.000Z,282.06
2023-04-25T09:52:59.000Z,281.99
2023-04-25T09:54:25.000Z,281.87
2023-04-25T09:56:31.000Z,281.82
2023-04-25T09:57:58.000Z,281.81
2023-04-25T10:00:04.000Z,281.79
2023-04-25T10:01:31.000Z,281.75
2023-04-25T10:03:37.000Z,281.75
2023-04-25T10:05:04.000Z,281.84
2023-04-25T10:07:10.000Z,281.85
2023-04-25T10:10:02.000Z,281.98
2023-04-25T10:11:28.000Z,282.05
2023-04-25T10:13:34.000Z,282.06
2023-04-25T10:15:01.000Z,282.08
2023-04-25T10:17:07.000Z,282.12
2023-04-25T10:18:33.000Z,282.19
2023-04-25T10:20:40.000Z,282.24
2023-04-25T10:22:06.000Z,282.24
2023-04-25T10:24:12.000Z,282.27
2023-04-25T10:25:39.000Z,282.17
2023-04-25T10:27:45.000Z,282.17
2023-04-25T10:29:11.000Z,282.14
2023-04-25T10:31:17.000Z,282.13
2023-04-25T10:32:44.000Z,282.09
2023-04-25T10:34:50.000Z,282.06
2023-04-25T10:36:17.000Z,282.03
2023-04-25T10:38:23.000Z,281.98
2023-04-25T10:39:49.000Z,281.91
2023-04-25T10:41:55.000Z,281.87
2023-04-25T10:43:22.000Z,281.84
2023-04-25T10:45:28.000Z,281.84
2023-04-25T10:48:19.000Z,281.88
2023-04-25T10:49:46.000Z,281.99
2023-04-25T10:51:52.000Z,282.08
2023-04-25T10:53:22.000Z,282.14
2023-04-25T10:55:28.000Z,282.19
2023-04-25T10:56:54.000Z,282.27
2023-04-25T10:59:00.000Z,282.41
2023-04-25T11:00:27.000Z,282.5
2023-04-25T11:02:44.000Z,282.53
2023-04-25T11:04:11.000Z,282.59
2023-04-25T11:06:17.000Z,282.63
2023-04-25T11:07:44.000Z,282.75
2023-04-25T11:09:53.000Z,282.91
2023-04-25T11:11:20.000Z,283.03
2023-04-25T11:13:26.000Z,282.93
2023-04-25T11:14:53.000Z,282.84
2023-04-25T11:16:59.000Z,282.73
2023-04-25T11:18:27.000Z,282.57
2023-04-25T11:20:33.000Z,282.5
2023-04-25T11:22:00.000Z,282.47
2023-04-25T11:24:06.000Z,282.41
2023-04-25T11:26:57.000Z,282.49
2023-04-25T11:28:23.000Z,282.61
2023-04-25T11:30:31.000Z,282.71
2023-04-25T11:31:58.000Z,282.81
2023-04-25T11:34:04.000Z,282.82
2023-04-25T11:35:31.000Z,282.84
2023-04-25T11:37:37.000Z,282.86
2023-04-25T11:39:03.000Z,282.86
2023-04-25T11:41:10.000Z,282.86
2023-04-25T11:42:36.000Z,282.74
2023-04-25T11:44:42.000Z,282.61
2023-04-25T11:46:09.000Z,282.47
2023-04-25T11:48:15.000Z,282.31
2023-04-25T11:49:42.000Z,282.27
2023-04-25T11:51:48.000Z,282.14
2023-04-25T11:53:14.000Z,282.05
2023-04-25T11:55:21.000Z,282.05
2023-04-25T11:56:47.000Z,282.08
2023-04-25T11:58:53.000Z,282.14
2023-04-25T12:00:20.000Z,282.31
2023-04-25T12:02:26.000Z,282.56
2023-04-25T12:06:48.000Z,283.03
2023-04-25T12:08:54.000Z,283.38
2023-04-25T12:10:21.000Z,283.55
2023-04-25T12:12:27.000Z,283.57
2023-04-25T12:13:53.000Z,283.55
2023-04-25T12:15:59.000Z,283.41
2023-04-25T12:17:26.000Z,283.26
2023-04-25T12:19:32.000Z,283
2023-04-25T12:20:58.000Z,282.82
2023-04-25T12:23:04.000Z,282.81
2023-04-25T12:24:31.000Z,282.75
2023-04-25T12:26:37.000Z,282.71
2023-04-25T12:28:04.000Z,282.59
2023-04-25T12:30:10.000Z,282.56
2023-04-25T12:31:36.000Z,282.49
2023-04-25T12:33:42.000Z,282.43
2023-04-25T12:35:09.000Z,282.35
2023-04-25T12:37:15.000Z,282.31
2023-04-25T12:38:42.000Z,282.27
2023-04-25T12:40:48.000Z,282.14
2023-04-25T12:43:39.000Z,282.09
2023-04-25T12:45:05.000Z,282.08
2023-04-25T12:47:12.000Z,282.09
2023-04-25T12:48:38.000Z,282.06
2023-04-25T12:50:44.000Z,282.08
2023-04-25T12:52:11.000Z,282.09
2023-04-25T12:54:17.000Z,282.14
2023-04-25T12:55:43.000Z,282.14
2023-04-25T12:57:49.000Z,282.2
2023-04-25T12:59:16.000Z,282.2
2023-04-25T13:01:22.000Z,282.23
2023-04-25T13:02:48.000Z,282.3
2023-04-25T13:04:55.000Z,282.42
2023-04-25T13:06:21.000Z,282.54
2023-04-25T13:08:27.000Z,282.63
2023-04-25T13:09:54.000Z,282.73
2023-04-25T13:12:00.000Z,282.81
2023-04-25T13:13:26.000Z,282.89
2023-04-25T13:15:33.000Z,282.96
2023-04-25T13:16:59.000Z,283.11
2023-04-25T13:19:05.000Z,283.18
2023-04-25T13:21:56.000Z,283.16
2023-04-25T13:23:23.000Z,283.18
2023-04-25T13:25:29.000Z,283.14
2023-04-25T13:26:56.000Z,283.14
2023-04-25T13:29:02.000Z,283.32
2023-04-25T13:30:28.000Z,283.44
2023-04-25T13:32:34.000Z,283.55
2023-04-25T13:34:01.000Z,283.84
2023-04-25T13:36:07.000Z,283.91
2023-04-25T13:37:34.000Z,283.97
2023-04-25T13:39:40.000Z,283.96
2023-04-25T13:41:07.000Z,283.94
2023-04-25T13:43:13.000Z,283.91
2023-04-25T13:44:40.000Z,283.83
2023-04-25T13:46:46.000Z,283.76
2023-04-25T13:48:14.000Z,283.72
2023-04-25T13:50:20.000Z,283.61
2023-04-25T13:51:46.000Z,283.61
2023-04-25T13:53:52.000Z,283.64
2023-04-25T13:55:19.000Z,283.89
2023-04-25T13:57:25.000Z,284.01
2023-04-25T14:00:16.000Z,284.02
2023-04-25T14:01:43.000Z,283.82
2023-04-25T14:03:49.000Z,283.57
2023-04-25T14:05:16.000Z,283.4
2023-04-25T14:07:22.000Z,283.23
2023-04-25T14:08:49.000Z,283.02
2023-04-25T14:10:55.000Z,282.89
2023-04-25T14:12:21.000Z,282.81
2023-04-25T14:14:27.000Z,282.79
2023-04-25T14:15:54.000Z,282.81
2023-04-25T14:18:00.000Z,282.74
2023-04-25T14:19:27.000Z,282.63
2023-04-25T14:21:33.000Z,282.6
2023-04-25T14:22:59.000Z,282.56
2023-04-25T14:25:05.000Z,282.54
2023-04-25T14:26:32.000Z,282.41
2023-04-25T14:28:38.000Z,282.36
2023-04-25T14:30:05.000Z,282.31
2023-04-25T14:32:11.000Z,282.26
2023-04-25T14:33:37.000Z,282.28
2023-04-25T14:35:43.000Z,282.31
2023-04-25T14:38:34.000Z,282.36
2023-04-25T14:40:01.000Z,282.39
2023-04-25T14:42:07.000Z,282.45
2023-04-25T14:43:34.000Z,282.54
2023-04-25T14:45:40.000Z,282.61
2023-04-25T14:47:06.000Z,282.7
2023-04-25T14:49:13.000Z,282.81
2023-04-25T14:50:39.000Z,282.85
2023-04-25T14:52:45.000Z,282.88
2023-04-25T14:54:12.000Z,282.86
2023-04-25T14:56:18.000Z,283.06
2023-04-25T14:57:44.000Z,283.03
2023-04-25T14:59:50.000Z,283.05
2023-04-25T15:01:17.000Z,283.02
2023-04-25T15:03:23.000Z,283.05
2023-04-25T15:04:50.000Z,283.02
2023-04-25T15:06:56.000Z,283
2023-04-25T15:08:23.000Z,283.03
2023-04-25T15:10:29.000Z,283.06
2023-04-25T15:11:55.000Z,283.1
2023-04-25T15:14:02.000Z,283.14
2023-04-25T15:16:53.000Z,283.23
2023-04-25T15:18:19.000Z,283.1
2023-04-25T15:20:26.000Z,283.02
2023-04-25T15:21:52.000Z,282.88
2023-04-25T15:23:58.000Z,282.84
2023-04-25T15:25:25.000Z,282.85
2023-04-25T15:27:31.000Z,282.86
2023-04-25T15:28:57.000Z,282.92
2023-04-25T15:31:03.000Z,282.95
2023-04-25T15:32:30.000Z,282.95
2023-04-25T15:34:36.000Z,283.07
2023-04-25T15:36:03.000Z,283.14
2023-04-25T15:38:09.000Z,283.13
2023-04-25T15:39:35.000Z,283.09
2023-04-25T15:41:41.000Z,283.22
2023-04-25T15:43:08.000Z,283.52
2023-04-25T15:45:14.000Z,283.83
2023-04-25T15:46:40.000Z,284.14
2023-04-25T15:48:47.000Z,284.2
2023-04-25T15:50:13.000Z,283.89
2023-04-25T15:52:19.000Z,283.61
2023-04-25T15:55:10.000Z,283.13
2023-04-25T15:56:37.000Z,283
2023-04-25T15:58:43.000Z,282.86
2023-04-25T16:00:10.000Z,282.7
2023-04-25T16:02:16.000Z,282.59
2023-04-25T16:03:42.000Z,282.47
2023-04-25T16:05:49.000Z,282.42
2023-04-25T16:07:15.000Z,282.36
2023-04-25T16:09:21.000Z,282.26
2023-04-25T16:10:48.000Z,282.27
2023-04-25T16:12:54.000Z,282.27
2023-04-25T16:14:21.000Z,282.47
2023-04-25T16:16:27.000Z,282.57
2023-04-25T16:17:54.000Z,282.98
2023-04-25T16:20:00.000Z,283.09
2023-04-25T16:21:27.000Z,283
2023-04-25T16:23:33.000Z,282.95
2023-04-25T16:24:59.000Z,282.86
2023-04-25T16:27:05.000Z,282.81
2023-04-25T16:28:32.000Z,282.77
2023-04-25T16:30:38.000Z,282.73
2023-04-25T16:33:29.000Z,282.77
2023-04-25T16:34:56.000Z,282.82
2023-04-25T16:37:04.000Z,283.05
2023-04-25T16:38:31.000Z,283.32
2023-04-25T16:40:37.000Z,283.48
2023-04-25T16:42:04.000Z,283.68
2023-04-25T16:44:10.000Z,283.82
2023-04-25T16:45:37.000Z,284.08
2023-04-25T16:47:43.000Z,284.24
2023-04-25T16:49:10.000Z,284.11
2023-04-25T16:51:16.000Z,283.84
2023-04-25T16:52:42.000Z,283.47
2023-04-25T16:54:50.000Z,283.18
2023-04-25T16:56:17.000Z,282.92
2023-04-25T16:58:23.000Z,282.77
2023-04-25T16:59:49.000Z,282.59
2023-04-25T17:01:55.000Z,282.45
2023-04-25T17:03:22.000Z,282.3
2023-04-25T17:05:28.000Z,282.26
2023-04-25T17:06:55.000Z,282.23
2023-04-25T17:09:01.000Z,282.19
2023-04-25T17:11:52.000Z,282.16
2023-04-25T17:13:19.000Z,282.2
2023-04-25T17:15:25.000Z,282.19
2023-04-25T17:16:51.000Z,282.2
2023-04-25T17:18:57.000Z,282.23
2023-04-25T17:20:24.000Z,282.23
2023-04-25T17:22:30.000Z,282.21
2023-04-25T17:23:57.000Z,282.19
2023-04-25T17:26:03.000Z,282.13
2023-04-25T17:27:29.000Z,282.06
2023-04-25T17:29:36.000Z,281.99
2023-04-25T17:31:02.000Z,281.89
2023-04-25T17:33:08.000Z,281.81
2023-04-25T17:34:35.000Z,281.72
2023-04-25T17:36:41.000Z,281.68
2023-04-25T17:38:07.000Z,281.66
2023-04-25T17:40:14.000Z,281.62
2023-04-25T17:41:40.000Z,281.62
2023-04-25T17:43:46.000Z,281.58
2023-04-25T17:45:13.000Z,281.56
2023-04-25T17:47:19.000Z,281.56
2023-04-25T17:50:10.000Z,281.48
2023-04-25T17:51:37.000Z,281.48
2023-04-25T17:53:43.000Z,281.48
2023-04-25T17:55:09.000Z,281.43
2023-04-25T17:57:15.000Z,281.4
2023-04-25T17:58:42.000Z,281.36
2023-04-25T18:00:48.000Z,281.35
2023-04-25T18:02:14.000Z,281.28
2023-04-25T18:04:21.000Z,281.23
2023-04-25T18:05:47.000Z,281.15
2023-04-25T18:07:54.000Z,281.08
2023-04-25T18:09:20.000Z,281.05
2023-04-25T18:11:26.000Z,281.04
2023-04-25T18:12:53.000Z,281
2023-04-25T18:14:59.000Z,280.96
2023-04-25T18:16:25.000Z,280.93
2023-04-25T18:18:32.000Z,280.9
2023-04-25T18:19:58.000Z,280.84
2023-04-25T18:22:04.000Z,280.84
2023-04-25T18:23:31.000Z,280.84
2023-04-25T18:25:37.000Z,280.8
2023-04-25T18:28:28.000Z,280.78
2023-04-25T18:29:55.000Z,280.75
2023-04-25T18:32:01.000Z,280.75
2023-04-25T18:33:27.000Z,280.75
2023-04-25T18:35:33.000Z,280.71
2023-04-25T18:37:00.000Z,280.69
2023-04-25T18:39:06.000Z,280.69
2023-04-25T18:40:48.000Z,280.66
2023-04-25T18:43:08.000Z,280.61
2023-04-25T18:44:34.000Z,280.56
2023-04-25T18:46:41.000Z,280.51
2023-04-25T18:48:07.000Z,280.49
2023-04-25T18:50:13.000Z,280.46
2023-04-25T18:51:40.000Z,280.43
2023-04-25T18:53:46.000Z,280.42
2023-04-25T18:55:12.000Z,280.4
2023-04-25T18:57:18.000Z,280.37
2023-04-25T18:58:45.000Z,280.34
2023-04-25T19:00:51.000Z,280.3
2023-04-25T19:02:18.000Z,280.25
2023-04-25T19:04:24.000Z,280.21
2023-04-25T19:07:15.000Z,280.18
2023-04-25T19:08:42.000Z,280.12
2023-04-25T19:10:48.000Z,280.1
2023-04-25T19:12:14.000Z,280.06
2023-04-25T19:14:21.000Z,280.05
2023-04-25T19:15:47.000Z,280.02
2023-04-25T19:17:53.000Z,280.02
2023-04-25T19:19:20.000Z,280.02
2023-04-25T19:21:26.000Z,280.02
2023-04-25T19:22:52.000Z,280.03
2023-04-25T19:24:59.000Z,280.02
2023-04-25T19:26:37.000Z,280.02
2023-04-25T19:28:43.000Z,280.02
2023-04-25T19:30:10.000Z,280.02
2023-04-25T19:32:16.000Z,279.99
2023-04-25T19:33:42.000Z,279.96
2023-04-25T19:35:48.000Z,279.95
2023-04-25T19:37:15.000Z,279.93
2023-04-25T19:39:21.000Z,279.91
2023-04-25T19:40:48.000Z,279.88
2023-04-25T19:42:54.000Z,279.85
2023-04-25T19:45:45.000Z,279.76
2023-04-25T19:47:11.000Z,279.67
2023-04-25T19:49:17.000Z,279.62
2023-04-25T19:50:44.000Z,279.58
2023-04-25T19:52:50.000Z,279.54
2023-04-25T19:54:16.000Z,279.48
2023-04-25T19:56:23.000Z,279.47
2023-04-25T19:57:49.000Z,279.45
2023-04-25T19:59:55.000Z,279.4
2023-04-25T20:01:22.000Z,279.35
2023-04-25T20:03:28.000Z,279.33
2023-04-25T20:04:55.000Z,279.28
2023-04-25T20:07:01.000Z,279.24
2023-04-25T20:08:28.000Z,279.22
2023-04-25T20:10:34.000Z,279.2
2023-04-25T20:12:00.000Z,279.17
2023-04-25T20:14:06.000Z,279.15
2023-04-25T20:15:33.000Z,279.15
2023-04-25T20:17:39.000Z,279.12
2023-04-25T20:19:06.000Z,279.1
2023-04-25T20:21:12.000Z,279.1
2023-04-25T20:24:03.000Z,279.1
2023-04-25T20:25:29.000Z,279.09
2023-04-25T20:27:35.000Z,279.08
2023-04-25T20:29:02.000Z,279.08
2023-04-25T20:31:08.000Z,279.06
2023-04-25T20:32:35.000Z,279.08
2023-04-25T20:34:41.000Z,279.06
2023-04-25T20:36:07.000Z,279.03
2023-04-25T20:38:13.000Z,278.99
2023-04-25T20:39:40.000Z,278.97
2023-04-25T20:41:46.000Z,278.94
2023-04-25T20:43:13.000Z,278.9
2023-04-25T20:45:19.000Z,278.89
2023-04-25T20:46:45.000Z,278.88
2023-04-25T20:48:51.000Z,278.86
2023-04-25T20:50:19.000Z,278.86
2023-04-25T20:52:25.000Z,278.86
2023-04-25T20:53:51.000Z,278.83
2023-04-25T20:55:57.000Z,278.83
2023-04-25T20:57:24.000Z,278.83
2023-04-25T20:59:30.000Z,278.81
2023-04-25T21:02:21.000Z,278.82
2023-04-25T21:03:48.000Z,278.81
2023-04-25T21:05:54.000Z,278.81
2023-04-25T21:07:21.000Z,278.79
2023-04-25T21:09:27.000Z,278.78
2023-04-25T21:10:54.000Z,278.75
2023-04-25T21:13:00.000Z,278.74
2023-04-25T21:14:26.000Z,278.71
2023-04-25T21:16:32.000Z,278.71
2023-04-25T21:18:01.000Z,278.69
2023-04-25T21:20:07.000Z,278.69
2023-04-25T21:21:34.000Z,278.69
2023-04-25T21:23:40.000Z,278.69
2023-04-25T21:25:06.000Z,278.68
2023-04-25T21:27:12.000Z,278.68
2023-04-25T21:28:39.000Z,278.68
2023-04-25T21:30:45.000Z,278.67
2023-04-25T21:32:12.000Z,278.67
2023-04-25T21:34:18.000Z,278.65
2023-04-25T21:35:44.000Z,278.64
2023-04-25T21:37:50.000Z,278.61
2023-04-25T21:40:41.000Z,278.61
2023-04-25T21:42:08.000Z,278.6
2023-04-25T21:44:14.000Z,278.6
2023-04-25T21:45:41.000Z,278.56
2023-04-25T21:48:21.000Z,278.53
2023-04-25T21:49:47.000Z,278.53
2023-04-25T21:51:53.000Z,278.51
2023-04-25T21:53:20.000Z,278.49
2023-04-25T21:55:26.000Z,278.47
2023-04-25T21:56:52.000Z,278.46
2023-04-25T21:58:58.000Z,278.46
2023-04-25T22:00:25.000Z,278.46
2023-04-25T22:02:31.000Z,278.46
2023-04-25T22:03:58.000Z,278.42
2023-04-25T22:06:04.000Z,278.39
2023-04-25T22:07:31.000Z,278.3
2023-04-25T22:09:37.000Z,278.28
2023-04-25T22:11:14.000Z,278.24
2023-04-25T22:13:20.000Z,278.22
2023-04-25T22:14:46.000Z,278.18
2023-04-25T22:16:52.000Z,278.17
2023-04-25T22:19:44.000Z,278.13
2023-04-25T22:21:10.000Z,278.1
2023-04-25T22:23:16.000Z,278.07
2023-04-25T22:24:43.000Z,278.04
2023-04-25T22:26:49.000Z,278.04
2023-04-25T22:28:16.000Z,278.02
2023-04-25T22:30:22.000Z,278
2023-04-25T22:31:48.000Z,278
2023-04-25T22:33:54.000Z,277.97
2023-04-25T22:35:21.000Z,277.96
2023-04-25T22:37:27.000Z,277.93
2023-04-25T22:38:54.000Z,277.92
2023-04-25T22:41:00.000Z,277.92
2023-04-25T22:42:27.000Z,277.91
2023-04-25T22:44:33.000Z,277.91
2023-04-25T22:45:59.000Z,277.88
2023-04-25T22:48:06.000Z,277.86
2023-04-25T22:49:32.000Z,277.85
2023-04-25T22:51:38.000Z,277.82
2023-04-25T22:53:05.000Z,277.78